Hovedside
METAR-TAF:

METAR-TAF

Lufthavner :

Ämari, Estland

Flystasjon

breddegrad: 59-15-44N, lengdegrad: 24-13-07E, høyde over havet: 20 m

Gjeldene værobservasjon

Denne rapporten ble laget for 4 timer og 6 minutter siden, klokken 14:50 UTC
Vind 9 kt fra Øst-nordøst
Temperatur 16°C
Luftfuktighet 82%
Trykk 1023 hPa
Sikt 10 km eller mer
ingen skyer under 1500 m og ingen bygeskyer

METAR: EEEI 221450Z 06009KT CAVOK 16/13 Q1023 NOSIG

Tid: 21:56 (18:56 UTC)

Varsel

Denne rapporten ble laget for 1 time og 26 minutter siden, klokken 17:30 UTC
Varsel gyldig fra 22. klokken 18 UTC til 23. klokken 18 UTC
Vind 7 kt fra Øst-nordøst
Sikt 10 km eller mer
ingen skyer under 1500 m og ingen bygeskyer

TAF: EEEI 221730Z 2218/2318 07007KT CAVOK

Værobservasjoner og værvarsel for over 4000 flyplasser (METAR- og TAF-rapporter).

Tilgjengelige stasjoner er representert av de røde og gule prikkene på kartet.

Hold musepekeren over prikken for å se navnet på stasjonen.

Klikk så for å se værobservasjoner og -varsler.

For å forandre kartet kan du klikke på den grønne knappen med svart kryss for å zoome inn, på den grønne knappen med strek for å zoome ut, eller på de grønne pilene for å se tilstøtende kart.


METAR-TAF: